Just enter your search query, and we'll fix you up with the latest tweets on that topic.

Latest tweets mentioning www.mov.cn

Zoé Robledo

Celebramos 4 años del triunfo del Mov. de Transformación encabezado por el Presidente @lopezobrador_ Hoy nos dijo… https://t.co/X1r1JeBOKx

https://twitter.com/zoerobledo

6 hours ago

C9 Cris

my favorite Buzzwole mov eset for sure its so fun https://t.co/8oAXhEi2mg

https://twitter.com/CrisHeroes

1 day ago

茨原

初吹替観終✈️ https://t.co/2Tkz1fDfVE

https://twitter.com/ibara_mov

just now

METARつぶやき

2022/07/02 07:09 ROAH 020709Z 36019KT 7000 +SHRA FEW010 SCT015 BKN020 FEW025CB 26/25 Q1002 RMK 1CU010 3CU015 5CU020… https://t.co/Z5MqtfINHV

https://twitter.com/METAR78345310

44 seconds ago

Latest tweets mentioning “上海自贸区注册公司流程,自贸区注册公司费用,自贸区注册公司注册优惠政策,如何注册自贸区公司,自贸区新闻,自贸区优惠政策”

No results